• Join FlightAware (Why Join?)
  • Login
  • US Flag 
06:57AM EST


 

Airport Tracker/Info


-or-


 

Live Flight TrackerFlight Track Log ✈ UAL33 ✈ 13-Jan-2014 ✈ RJAA / NRT - KLAX

Flight Track Log - Related Links

Times and Time Zones

All times are in EST time to prevent confusion due to time zone crossing. See the UAL33 flight status page for this flight to view local times or setup timezone preferences in your user account.

Time Position Orientation Groundspeed Altitude Reporting Facility
EST Latitude Longitude Course Direction KTS MPH feet Rate Location/Type
06:24AM 36.0997 141.0235 57° Northeast  Level FlightAware Approximate
06:25AM 36.1829 141.1836 57° Northeast  Level FlightAware Approximate
06:26AM 36.2659 141.3441 57° Northeast  Level FlightAware Approximate
06:27AM 36.3458 141.5003 58° Northeast  Level FlightAware Approximate
06:28AM 36.4255 141.6569 58° Northeast  Level FlightAware Approximate
06:29AM 36.5051 141.8138 58° Northeast  Level FlightAware Approximate
06:30AM 36.5844 141.9710 58° Northeast  Level FlightAware Approximate
06:31AM 36.6635 142.1285 58° Northeast  Level FlightAware Approximate
06:32AM 36.7424 142.2864 58° Northeast  Level FlightAware Approximate
06:33AM 36.8211 142.4446 58° Northeast  Level FlightAware Approximate
06:34AM 36.8996 142.6031 58° Northeast  Level FlightAware Approximate
06:35AM 36.9779 142.7619 58° Northeast  Level FlightAware Approximate
06:36AM 37.0559 142.9211 58° Northeast  Level FlightAware Approximate
06:37AM 37.1338 143.0806 58° Northeast  Level FlightAware Approximate
06:38AM 37.2114 143.2404 59° Northeast  Level FlightAware Approximate
06:39AM 37.2888 143.4005 59° Northeast  Level FlightAware Approximate
06:40AM 37.3660 143.5610 59° Northeast  Level FlightAware Approximate
06:41AM 37.4431 143.7216 59° Northeast  Level FlightAware Approximate
06:42AM 37.5201 143.8826 59° Northeast  Level FlightAware Approximate
06:43AM 37.5969 144.0438 59° Northeast  Level FlightAware Approximate
06:44AM 37.6735 144.2054 59° Northeast  Level FlightAware Approximate
06:45AM 37.7498 144.3674 59° Northeast  Level FlightAware Approximate
06:46AM 37.8260 144.5296 59° Northeast  Level FlightAware Approximate
06:47AM 37.9019 144.6923 59° Northeast  Level FlightAware Approximate
06:48AM 37.9776 144.8552 59° Northeast  Level FlightAware Approximate
06:49AM 38.0530 145.0185 60° Northeast  Level FlightAware Approximate
06:50AM 38.1283 145.1821 60° Northeast  Level FlightAware Approximate
06:51AM 38.2033 145.3461 60° Northeast  Level FlightAware Approximate
06:52AM 38.2781 145.5103 60° Northeast  Level FlightAware Approximate
06:53AM 38.3571 145.6848 60° Northeast  Level FlightAware Approximate
06:54AM 38.4358 145.8597 60° Northeast  Level FlightAware Approximate
06:55AM 38.5143 146.0349 60° Northeast  Level FlightAware Approximate
06:56AM 38.5925 146.2105 60° Northeast  Level FlightAware Approximate
06:57AM 38.6705 146.3865 60° Northeast  Level FlightAware Approximate
06:58AM 38.7482 146.5629 61° Northeast  Level FlightAware Approximate
06:59AM 38.8256 146.7397 61° Northeast  Level FlightAware Approximate
07:00AM 38.9028 146.9169 61° Northeast  Level FlightAware Approximate
07:01AM 38.9797 147.0944 61° Northeast  Level FlightAware Approximate
07:02AM 39.0563 147.2723 61° Northeast  Level FlightAware Approximate
07:03AM 39.1327 147.4506 61° Northeast  Level FlightAware Approximate
07:04AM 39.2087 147.6293 61° Northeast  Level FlightAware Approximate
07:05AM 39.2845 147.8084 61° Northeast  Level FlightAware Approximate
07:06AM 39.3601 147.9879 61° Northeast  Level FlightAware Approximate
07:07AM 39.4353 148.1678 62° Northeast  Level FlightAware Approximate
07:08AM 39.5103 148.3480 62° Northeast  Level FlightAware Approximate
07:09AM 39.5850 148.5286 62° Northeast  Level FlightAware Approximate
07:10AM 39.6594 148.7097 62° Northeast  Level FlightAware Approximate
07:11AM 39.7336 148.8911 62° Northeast  Level FlightAware Approximate
07:12AM 39.8074 149.0729 62° Northeast  Level FlightAware Approximate
07:13AM 39.8810 149.2551 62° Northeast  Level FlightAware Approximate
07:14AM 39.9543 149.4377 62° Northeast  Level FlightAware Approximate
07:15AM 40.0273 149.6207 62° Northeast  Level FlightAware Approximate
07:16AM 40.1000 149.8040 63° Northeast  Level FlightAware Approximate
07:17AM 40.1724 149.9878 63° Northeast  Level FlightAware Approximate
07:18AM 40.2446 150.1720 63° Northeast  Level FlightAware Approximate
07:19AM 40.3164 150.3565 63° Northeast  Level FlightAware Approximate
07:20AM 40.3879 150.5414 63° Northeast  Level FlightAware Approximate
07:21AM 40.4592 150.7268 63° Northeast  Level FlightAware Approximate
07:22AM 40.5301 150.9125 63° Northeast  Level FlightAware Approximate
07:23AM 40.6008 151.0986 63° Northeast  Level FlightAware Approximate
07:24AM 40.6711 151.2851 64° Northeast  Level FlightAware Approximate
07:25AM 40.7412 151.4720 64° Northeast  Level FlightAware Approximate
07:26AM 40.8109 151.6593 64° Northeast  Level FlightAware Approximate
07:27AM 40.8804 151.8470 64° Northeast  Level FlightAware Approximate
07:28AM 40.9495 152.0351 64° Northeast  Level FlightAware Approximate
07:29AM 41.0184 152.2235 64° Northeast  Level FlightAware Approximate
07:30AM 41.0869 152.4124 64° Northeast  Level FlightAware Approximate
07:31AM 41.1551 152.6017 64° Northeast  Level FlightAware Approximate
07:32AM 41.2230 152.7913 64° Northeast  Level FlightAware Approximate
07:33AM 41.2906 152.9814 65° Northeast  Level FlightAware Approximate
07:34AM 41.3579 153.1718 65° Northeast  Level FlightAware Approximate
07:35AM 41.4249 153.3626 65° Northeast  Level FlightAware Approximate
07:36AM 41.4915 153.5539 65° Northeast  Level FlightAware Approximate
07:37AM 41.5579 153.7455 65° Northeast  Level FlightAware Approximate
07:38AM 41.6239 153.9375 65° Northeast  Level FlightAware Approximate
07:39AM 41.6896 154.1299 65° Northeast  Level FlightAware Approximate
07:40AM 41.7550 154.3227 66° East  Level FlightAware Approximate
07:41AM 41.8200 154.5159 66° East  Level FlightAware Approximate
07:42AM 41.8848 154.7095 66° East  Level FlightAware Approximate
07:43AM 41.9492 154.9034 66° East  Level FlightAware Approximate
07:44AM 42.0132 155.0978 66° East  Level FlightAware Approximate
07:45AM 42.0770 155.2926 66° East  Level FlightAware Approximate
07:46AM 42.1404 155.4877 66° East  Level FlightAware Approximate
07:47AM 42.2035 155.6833 66° East  Level FlightAware Approximate
07:48AM 42.2662 155.8792 67° East  Level FlightAware Approximate
07:49AM 42.3287 156.0755 67° East  Level FlightAware Approximate
07:50AM 42.3907 156.2722 67° East  Level FlightAware Approximate
07:51AM 42.4525 156.4693 67° East  Level FlightAware Approximate
07:52AM 42.5139 156.6668 67° East  Level FlightAware Approximate
07:53AM 42.5750 156.8647 67° East  Level FlightAware Approximate
07:54AM 42.6357 157.0629 67° East  Level FlightAware Approximate
07:55AM 42.6961 157.2616 67° East  Level FlightAware Approximate
07:56AM 42.7561 157.4606 68° East  Level FlightAware Approximate
07:57AM 42.8158 157.6600 68° East  Level FlightAware Approximate
07:58AM 42.8752 157.8598 68° East  Level FlightAware Approximate
07:59AM 42.9342 158.0600 68° East  Level FlightAware Approximate
08:00AM 42.9928 158.2605 68° East  Level FlightAware Approximate
08:01AM 43.0511 158.4615 68° East  Level FlightAware Approximate
08:02AM 43.1091 158.6628 68° East  Level FlightAware Approximate
08:03AM 43.1667 158.8645 69° East  Level FlightAware Approximate
08:04AM 43.2239 159.0666 69° East  Level FlightAware Approximate
08:05AM 43.2808 159.2691 69° East  Level FlightAware Approximate
08:06AM 43.3373 159.4719 69° East  Level FlightAware Approximate
08:07AM 43.3935 159.6752 69° East  Level FlightAware Approximate
08:08AM 43.4493 159.8788 69° East  Level FlightAware Approximate
08:09AM 43.5047 160.0827 69° East  Level FlightAware Approximate
08:10AM 43.5598 160.2871 70° East  Level FlightAware Approximate
08:11AM 43.6146 160.4918 70° East  Level FlightAware Approximate
08:12AM 43.6689 160.6969 70° East  Level FlightAware Approximate
08:13AM 43.7229 160.9023 70° East  Level FlightAware Approximate
08:14AM 43.7765 161.1082 70° East  Level FlightAware Approximate
08:15AM 43.8297 161.3144 70° East  Level FlightAware Approximate
08:16AM 43.8826 161.5209 70° East  Level FlightAware Approximate
08:17AM 43.9351 161.7278 71° East  Level FlightAware Approximate
08:18AM 43.9872 161.9351 71° East  Level FlightAware Approximate
08:19AM 44.0390 162.1428 71° East  Level FlightAware Approximate
08:20AM 44.0904 162.3508 71° East  Level FlightAware Approximate
08:21AM 44.1413 162.5592 71° East  Level FlightAware Approximate
08:22AM 44.1920 162.7679 71° East  Level FlightAware Approximate
08:22AM 38.0667 167.7167 91° East 689 793 38,000  Level Oakland Oceanic (ODAPS)
08:32AM 38.0000 170.0000 87° East 675 777 38,000  Level Oakland Oceanic (ODAPS)
08:36AM 38.0333 171.0167 87° East 666 766 38,000  Level Oakland Oceanic (ODAPS)
08:43AM 38.0833 172.7500 89° East 667 768 38,000  Level Oakland Oceanic (ODAPS)
08:43AM 38.0833 172.7500 89° East 664 764 38,000  Level Oakland Oceanic (ODAPS)
08:50AM 38.1000 174.1667 89° East 660 760 38,000 59 Level Oakland Oceanic (ODAPS)
09:00AM 38.1000 176.5667 91° East 633 728 39,000 92 Climbing Oakland Oceanic (ODAPS)
09:00AM 38.1000 176.6167 91° East 632 727 39,000  Level Oakland Oceanic (ODAPS)
09:03AM 38.0833 177.2833 91° East 630 725 39,000  Level Oakland Oceanic (ODAPS)
09:16AM 38.0000 180.0000 80° East 607 699 39,000  Level Oakland Oceanic (ODAPS)
09:17AM 38.0333 -179.7167 80° East 599 689 39,000  Level Oakland Oceanic (ODAPS)
09:31AM 38.4000 -176.9000 81° East 582 670 39,000  Level Oakland Oceanic (ODAPS)
09:45AM 38.7000 -174.0667 83° East 581 669 39,000 36 Level Oakland Oceanic (ODAPS)
09:59AM 38.9333 -171.1833 85° East 590 679 40,000 51 Climbing Oakland Oceanic (ODAPS)
10:05AM 39.0000 -170.0000 79° East 586 674 40,000  Level Oakland Oceanic (ODAPS)
10:13AM 39.2333 -168.3000 81° East 578 665 40,000  Level Oakland Oceanic (ODAPS)
10:27AM 39.5667 -165.4500 82° East 573 659 40,000  Level Oakland Oceanic (ODAPS)
10:41AM 39.8167 -162.6167 84° East 579 666 40,000  Level Oakland Oceanic (ODAPS)
10:53AM 40.0000 -160.0000 79° East 569 655 40,000  Level Oakland Oceanic (ODAPS)
10:54AM 40.0333 -159.7833 79° East 563 648 40,000  Level Oakland Oceanic (ODAPS)
11:08AM 40.4000 -156.9667 81° East 569 655 40,000  Level Oakland Oceanic (ODAPS)
11:22AM 40.7000 -154.1500 83° East 562 647 40,000  Level Oakland Oceanic (ODAPS)
11:36AM 40.9167 -151.3667 85° East 553 636 40,000  Level Oakland Oceanic (ODAPS)
11:43AM 41.0000 -150.0000 87° East 541 623 40,000  Level Oakland Oceanic (ODAPS)
11:50AM 41.0500 -148.5833 88° East 543 625 40,000  Level Oakland Oceanic (ODAPS)
12:04PM 41.1000 -145.8000 89° East 546 628 40,000  Level Oakland Oceanic (ODAPS)
12:18PM 41.0833 -143.0167 91° East 540 621 40,000  Level Oakland Oceanic (ODAPS)
12:31PM 41.0167 -140.3333 94° East 522 601 40,000  Level Oakland Oceanic (ODAPS)
12:33PM 41.0000 -140.0000 101° East 527 606 40,000  Level Oakland Oceanic (ODAPS)
12:45PM 40.6333 -137.7333 103° East 522 601 40,000  Level Oakland Oceanic (ODAPS)
12:59PM 40.1667 -135.2167 105° East 516 594 40,000  Level Oakland Oceanic (ODAPS)
01:13PM 39.6500 -132.7667 106° East 510 587 40,000  Level Oakland Oceanic (ODAPS)
01:27PM 39.0833 -130.3333 108° East 513 590 40,000  Level Oakland Oceanic (ODAPS)
01:29PM 39.0000 -130.0000 102° East 513 590 40,000  Level Oakland Oceanic (ODAPS)
01:29PM 38.9833 -129.9167 102° East 515 593 40,000  Level Oakland Oceanic (ODAPS)
01:41PM 38.6333 -127.8833 103° East 516 594 40,000 -7 Level Oakland Oceanic (ODAPS)
01:43PM 38.5558 -127.4947 111° Southeast 519 597 39,900  Descending Oakland Center
01:44PM 38.5352 -127.3623 103° East 515 593 40,000  Climbing FlightAware Transoceanic
01:44PM 38.5236 -127.3167 103° East 517 595 39,900  Descending Oakland Center
01:44PM 38.5167 -127.3000 102° East 519 597 40,000 158 Climbing Oakland Oceanic (ODAPS)
01:45PM 38.5011 -127.1810 104° East 515 593 40,000 -111 Level FlightAware Transoceanic
01:45PM 38.4803 -127.1425 102° East 517 595 39,900  Descending Oakland Center
01:46PM 38.4667 -127.0000 111° Southeast 515 593 40,000  Climbing FlightAware Transoceanic
01:46PM 38.4333 -126.9703 109° East 517 595 39,900  Descending Oakland Center
01:47PM 38.4158 -126.8324 111° Southeast 516 594 40,000  Climbing FlightAware Transoceanic
01:47PM 38.3881 -126.7953 108° East 519 597 39,900  Descending Oakland Center
01:48PM 38.3646 -126.6650 111° Southeast 516 594 40,000 98 Climbing FlightAware Transoceanic
01:48PM 38.3406 -126.6231 109° East 519 597 40,000 -67 Level Oakland Center
01:49PM 38.2850 -126.4542 113° Southeast 519 597 39,900 -49 Descending Oakland Center
01:50PM 38.2231 -126.2872 115° Southeast 523 602 39,900  Level Oakland Center
01:51PM 38.1528 -126.0961 115° Southeast 518 596 39,900 49 Level Oakland Center
01:52PM 38.0903 -125.9308 116° Southeast 520 598 40,000  Climbing Oakland Center
01:53PM 38.0303 -125.7669 115° Southeast 517 595 39,900  Descending Oakland Center
01:54PM 37.9700 -125.6019 115° Southeast 517 595 40,000  Climbing Oakland Center
01:55PM 37.9069 -125.4378 116° Southeast 518 596 39,900 -49 Descending Oakland Center
01:56PM 37.8447 -125.2731 116° Southeast 520 598 39,900 49 Level Oakland Center
01:57PM 37.7692 -125.0761 116° Southeast 521 600 40,000  Climbing Oakland Center
01:58PM 37.7061 -124.9131 116° Southeast 520 598 39,900  Descending Oakland Center
01:59PM 37.6433 -124.7497 116° Southeast 520 598 40,000 49 Climbing Oakland Center
02:00PM 37.5803 -124.5869 116° Southeast 518 596 40,000  Level Oakland Center
02:01PM 37.5167 -124.4244 116° Southeast 520 598 40,000 -49 Level Oakland Center
02:02PM 37.4533 -124.2639 116° Southeast 517 595 39,900 -49 Descending Oakland Center
02:03PM 37.3894 -124.1017 116° Southeast 520 598 39,900  Level Oakland Center
02:04PM 37.3122 -123.9072 116° Southeast 521 600 39,900  Level Oakland Center
02:05PM 37.2444 -123.7439 117° Southeast 527 606 39,900 49 Level Oakland Center
02:06PM 37.1817 -123.5844 116° Southeast 517 595 40,000 49 Climbing Oakland Center
02:07PM 37.1178 -123.4250 117° Southeast 516 594 40,000 -49 Level Oakland Center
02:08PM 37.0528 -123.2647 117° Southeast 519 597 39,900  Descending Oakland Center
02:14PM 36.6798 -122.3600 117° Southeast 518 596 40,000 16 Climbing FlightAware ADS-B
02:15PM 36.6220 -122.2220 118° Southeast 518 596 40,000  Level FlightAware ADS-B
02:15PM 36.5867 -122.1380 118° Southeast 520 598 40,000 -61 Level FlightAware ADS-B
02:16PM 36.5233 -122.0003 118° Southeast 518 596 39,900  Descending Los Angeles Center
02:18PM 36.4431 -121.8083 117° Southeast 521 600 40,000 48 Climbing Los Angeles Center
02:19PM 36.3756 -121.6511 118° Southeast 519 597 40,000 -384 Level Los Angeles Center
02:20PM 36.3086 -121.4922 118° Southeast 520 598 39,200 -484 Descending Los Angeles Center
02:21PM 36.2408 -121.3297 117° Southeast 529 609 39,000 -145 Descending Los Angeles Center
02:22PM 36.1725 -121.1678 118° Southeast 532 612 38,900  Descending Los Angeles Center
02:23PM 36.0883 -120.9819 119° Southeast 525 604 39,000  Climbing Oakland Center
02:24PM 36.0186 -120.8203 118° Southeast 529 609 38,900 -49 Descending Oakland Center
02:25PM 35.9483 -120.6594 118° Southeast 532 612 38,900  Level Oakland Center
02:26PM 35.8792 -120.4997 118° Southeast 527 606 38,900  Level Oakland Center
02:27PM 35.8083 -120.3400 119° Southeast 528 608 38,900 49 Level Oakland Center
02:28PM 35.7369 -120.1797 119° Southeast 528 608 39,000  Climbing Oakland Center
02:29PM 35.6650 -120.0194 119° Southeast 529 609 38,900 -98 Descending Oakland Center
02:30PM 35.5550 -119.8992 138° Southeast 525 604 38,800 -393 Descending Los Angeles Center
02:31PM 35.4361 -119.7964 145° Southeast 518 596 38,100 -1,161 Descending Los Angeles Center
02:32PM 35.2964 -119.6764 145° Southeast 509 586 36,400 -2,081 Descending Los Angeles Center
02:33PM 35.1803 -119.5769 145° Southeast 508 585 33,800 -2,688 Descending Los Angeles Center
02:34PM 35.0639 -119.4769 145° Southeast 509 586 30,800 -2,976 Descending Los Angeles Center
02:35PM 34.9456 -119.3769 145° Southeast 515 593 27,600 -2,758 Descending Los Angeles Center
02:36PM 34.8308 -119.2778 145° Southeast 509 586 25,100 -2,419 Descending Los Angeles Center
02:37PM 34.7183 -119.1836 145° Southeast 493 567 22,600 -2,516 Descending Los Angeles Center
02:38PM 34.5997 -119.0850 146° Southeast 479 551 19,900 -2,274 Descending Los Angeles Center
02:39PM 34.4975 -118.9992 145° Southeast 447 514 17,900 -2,565 Descending Los Angeles Center
02:40PM 34.3806 -118.8989 145° Southeast 430 495 14,600 -2,544 Descending Los Angeles Center
02:41PM 34.2756 -118.8519 160° South 396 456 12,600 -971 Descending Los Angeles Center
02:47PM 34.0158 -118.5151 160° South 235 270 8,000 -821 Descending FlightAware ADS-B
02:48PM 34.0117 -118.4714 96° East 231 266 7,400 -968 Descending FlightAware ADS-B
02:48PM 34.0124 -118.4344 89° East 228 262 7,000 -1,636 Descending FlightAware ADS-B
02:48PM 34.0146 -118.4145 82° East 230 265 6,200 -2,647 Descending FlightAware ADS-B
02:49PM 34.0166 -118.3953 83° East 227 261 5,500 -2,143 Descending FlightAware ADS-B
02:49PM 34.0218 -118.3432 83° East 223 257 4,200 -1,556 Descending FlightAware ADS-B
02:50PM 34.0333 -118.3000 83° East 217 250 3,400 -911 Descending Southern California TRACON
02:51PM 34.0300 -118.2628 96° East 216 249 3,000 -545 Descending Los Angeles Center
02:52PM 34.0253 -118.2103 96° East 194 223 2,500 -242 Descending Los Angeles Center
02:53PM 33.9789 -118.2406 208° Southwest 188 216 2,500 -290 Level Los Angeles Center
02:54PM 33.9628 -118.2981 251° West 192 221 1,900 -726 Descending Los Angeles Center
02:55PM 33.9561 -118.3525 262° West 176 203 1,000 -774 Descending Los Angeles Center
02:56PM 33.9514 -118.4006 263° West 158 182 300 -677 Descending Los Angeles Center